sensor_id;sensor_type;location;lat;lon;timestamp;P1;P2;P0
74428;PMS5003;62860;52.134;23.714;2022-11-14T00:04:14;9.8;8.8;8
74428;PMS5003;62860;52.134;23.714;2022-11-14T00:09:42;10;8.4;7.6
74428;PMS5003;62860;52.134;23.714;2022-11-14T00:14:30;10;9;7
74428;PMS5003;62860;52.134;23.714;2022-11-14T00:19:44;8;7.8;6.2
74428;PMS5003;62860;52.134;23.714;2022-11-14T00:24:18;10.6;7.6;6
74428;PMS5003;62860;52.134;23.714;2022-11-14T00:29:42;10;7.2;5.8
74428;PMS5003;62860;52.134;23.714;2022-11-14T00:34:06;10.6;7;6
74428;PMS5003;62860;52.134;23.714;2022-11-14T00:39:18;8.8;7.4;6.4
74428;PMS5003;62860;52.134;23.714;2022-11-14T00:44:16;9.4;8.2;6.6
74428;PMS5003;62860;52.134;23.714;2022-11-14T00:49:30;12.2;9.2;7.8
74428;PMS5003;62860;52.134;23.714;2022-11-14T00:54:00;10.6;8.6;7.4
74428;PMS5003;62860;52.134;23.714;2022-11-14T00:59:44;12;10.8;9.4
74428;PMS5003;62860;52.134;23.714;2022-11-14T01:04:06;14;11.8;8.6
74428;PMS5003;62860;52.134;23.714;2022-11-14T01:09:40;15.4;13.4;11.8
74428;PMS5003;62860;52.134;23.714;2022-11-14T01:14:16;10.4;10;8
74428;PMS5003;62860;52.134;23.714;2022-11-14T01:19:28;8;6.6;5
74428;PMS5003;62860;52.134;23.714;2022-11-14T01:24:30;8.6;8;6.6
74428;PMS5003;62860;52.134;23.714;2022-11-14T01:29:10;11.6;7.8;5.8
74428;PMS5003;62860;52.134;23.714;2022-11-14T01:34:46;9.2;6.8;5.8
74428;PMS5003;62860;52.134;23.714;2022-11-14T01:39:20;9.8;8.6;6.6
74428;PMS5003;62860;52.134;23.714;2022-11-14T01:44:40;13.4;11.2;8.2
74428;PMS5003;62860;52.134;23.714;2022-11-14T01:49:01;9.6;8;6
74428;PMS5003;62860;52.134;23.714;2022-11-14T01:54:23;9.2;7;5.4
74428;PMS5003;62860;52.134;23.714;2022-11-14T01:59:11;8.3;7.8;6.3
74428;PMS5003;62860;52.134;23.714;2022-11-14T02:04:35;9.2;6.8;5.4
74428;PMS5003;62860;52.134;23.714;2022-11-14T02:09:01;7.2;6.6;4.8
74428;PMS5003;62860;52.134;23.714;2022-11-14T02:14:45;7.2;5.2;4
74428;PMS5003;62860;52.134;23.714;2022-11-14T02:19:00;6.2;5;3.2
74428;PMS5003;62860;52.134;23.714;2022-11-14T02:24:44;6.2;5.4;4.4
74428;PMS5003;62860;52.134;23.714;2022-11-14T02:29:22;7.2;5.4;3.8
74428;PMS5003;62860;52.134;23.714;2022-11-14T02:34:34;5.4;4.4;3.2
74428;PMS5003;62860;52.134;23.714;2022-11-14T02:39:22;5.8;4.8;3.8
74428;PMS5003;62860;52.134;23.714;2022-11-14T02:44:22;4.8;4.4;3.2
74428;PMS5003;62860;52.134;23.714;2022-11-14T02:49:46;6;4.2;3.4
74428;PMS5003;62860;52.134;23.714;2022-11-14T02:54:00;8;6.8;4.4
74428;PMS5003;62860;52.134;23.714;2022-11-14T02:59:22;5.6;3.4;3
74428;PMS5003;62860;52.134;23.714;2022-11-14T03:04:20;7.2;4.4;3.2
74428;PMS5003;62860;52.134;23.714;2022-11-14T03:09:00;5.6;4.4;3.6
74428;PMS5003;62860;52.134;23.714;2022-11-14T03:14:20;5;4.2;3.2
74428;PMS5003;62860;52.134;23.714;2022-11-14T03:19:22;4.8;4.2;3.2
74428;PMS5003;62860;52.134;23.714;2022-11-14T03:24:30;5.2;4.2;3
74428;PMS5003;62860;52.134;23.714;2022-11-14T03:29:46;5.6;4.8;3.2
74428;PMS5003;62860;52.134;23.714;2022-11-14T03:34:11;5.2;3.8;2.6
74428;PMS5003;62860;52.134;23.714;2022-11-14T03:39:44;5.4;4;2.8
74428;PMS5003;62860;52.134;23.714;2022-11-14T03:44:34;4.6;3.6;2.8
74428;PMS5003;62860;52.134;23.714;2022-11-14T03:49:22;4.6;4;2.4
74428;PMS5003;62860;52.134;23.714;2022-11-14T03:54:34;3;2.4;2.2
74428;PMS5003;62860;52.134;23.714;2022-11-14T03:59:10;5.2;3.8;2
74428;PMS5003;62860;52.134;23.714;2022-11-14T04:04:48;2;1.6;1.4
74428;PMS5003;62860;52.134;23.714;2022-11-14T04:09:18;3.2;2;1.6
74428;PMS5003;62860;52.134;23.714;2022-11-14T04:14:02;2.4;1.8;1.8
74428;PMS5003;62860;52.134;23.714;2022-11-14T04:19:36;3.4;2.8;2
74428;PMS5003;62860;52.134;23.714;2022-11-14T04:24:20;2.4;2.2;1.8
74428;PMS5003;62860;52.134;23.714;2022-11-14T04:29:22;4;2.2;1.6
74428;PMS5003;62860;52.134;23.714;2022-11-14T04:34:22;2.8;2.4;2.2
74428;PMS5003;62860;52.134;23.714;2022-11-14T04:39:20;5.4;3.6;2.8
74428;PMS5003;62860;52.134;23.714;2022-11-14T04:44:46;4.2;2.8;2.2
74428;PMS5003;62860;52.134;23.714;2022-11-14T04:49:22;3;2.6;2.4
74428;PMS5003;62860;52.134;23.714;2022-11-14T04:54:48;1.8;1.4;1
74428;PMS5003;62860;52.134;23.714;2022-11-14T04:59:34;2.6;1.8;1.8
74428;PMS5003;62860;52.134;23.714;2022-11-14T05:04:46;3.4;1.8;1.6
74428;PMS5003;62860;52.134;23.714;2022-11-14T05:09:24;3.4;2.6;1.4
74428;PMS5003;62860;52.134;23.714;2022-11-14T05:14:26;5.2;4.4;2.6
74428;PMS5003;62860;52.134;23.714;2022-11-14T05:19:46;1.8;1.8;1.4
74428;PMS5003;62860;52.134;23.714;2022-11-14T05:24:46;3;2;1.4
74428;PMS5003;62860;52.134;23.714;2022-11-14T05:29:44;3.4;2.6;2.4
74428;PMS5003;62860;52.134;23.714;2022-11-14T05:34:10;3.2;3;2.4
74428;PMS5003;62860;52.134;23.714;2022-11-14T05:39:00;8.8;4.8;3.6
74428;PMS5003;62860;52.134;23.714;2022-11-14T05:44:10;7;4;3.6
74428;PMS5003;62860;52.134;23.714;2022-11-14T05:49:48;3.8;2.8;2.4
74428;PMS5003;62860;52.134;23.714;2022-11-14T05:54:20;4.2;3.2;2.6
74428;PMS5003;62860;52.134;23.714;2022-11-14T05:59:30;5.4;5;4.2
74428;PMS5003;62860;52.134;23.714;2022-11-14T06:04:00;8;6.8;5.4
74428;PMS5003;62860;52.134;23.714;2022-11-14T06:09:46;6.6;5.2;3.2
74428;PMS5003;62860;52.134;23.714;2022-11-14T06:14:22;5.4;5;3.2
74428;PMS5003;62860;52.134;23.714;2022-11-14T06:19:02;6.6;6.2;4.2
74428;PMS5003;62860;52.134;23.714;2022-11-14T06:24:34;11.6;7.8;5.6
74428;PMS5003;62860;52.134;23.714;2022-11-14T06:29:00;5.8;4;3
74428;PMS5003;62860;52.134;23.714;2022-11-14T06:34:50;3.4;2.8;2.2
74428;PMS5003;62860;52.134;23.714;2022-11-14T06:39:50;3.2;2.8;2.2
74428;PMS5003;62860;52.134;23.714;2022-11-14T06:44:34;2.6;1.8;1.8
74428;PMS5003;62860;52.134;23.714;2022-11-14T06:49:00;1.4;1.4;1
74428;PMS5003;62860;52.134;23.714;2022-11-14T06:54:00;5.8;2.6;1.8
74428;PMS5003;62860;52.134;23.714;2022-11-14T06:59:00;6.4;3.8;2.8
74428;PMS5003;62860;52.134;23.714;2022-11-14T07:04:48;4.6;3.8;2.8
74428;PMS5003;62860;52.134;23.714;2022-11-14T07:09:22;7.5;6.3;4.8
74428;PMS5003;62860;52.134;23.714;2022-11-14T07:14:34;4.4;4;3
74428;PMS5003;62860;52.134;23.714;2022-11-14T07:19:10;3.4;3.4;2.6
74428;PMS5003;62860;52.134;23.714;2022-11-14T07:24:46;6;4;2.4
74428;PMS5003;62860;52.134;23.714;2022-11-14T07:29:22;7.6;5.8;3.8
74428;PMS5003;62860;52.134;23.714;2022-11-14T07:34:50;4.4;3.4;2.4
74428;PMS5003;62860;52.134;23.714;2022-11-14T07:39:32;3.2;2.4;2.2
74428;PMS5003;62860;52.134;23.714;2022-11-14T07:44:22;7.2;4;2.6
74428;PMS5003;62860;52.134;23.714;2022-11-14T07:49:48;7.2;4.4;3.8
74428;PMS5003;62860;52.134;23.714;2022-11-14T07:54:44;7;5.8;5.6
74428;PMS5003;62860;52.134;23.714;2022-11-14T07:59:46;13.6;10.6;9.2
74428;PMS5003;62860;52.134;23.714;2022-11-14T08:04:18;5.8;4.6;3.4
74428;PMS5003;62860;52.134;23.714;2022-11-14T08:09:12;10;8.4;7
74428;PMS5003;62860;52.134;23.714;2022-11-14T08:14:20;7;5.4;4.8
74428;PMS5003;62860;52.134;23.714;2022-11-14T08:19:22;6.4;5;4.2
74428;PMS5003;62860;52.134;23.714;2022-11-14T08:24:10;7.6;6.2;4
74428;PMS5003;62860;52.134;23.714;2022-11-14T08:29:34;3.6;3.6;3.2
74428;PMS5003;62860;52.134;23.714;2022-11-14T08:34:34;5.8;3.6;3.2
74428;PMS5003;62860;52.134;23.714;2022-11-14T08:39:42;4;3.6;2.6
74428;PMS5003;62860;52.134;23.714;2022-11-14T08:44:10;5;4;3.2
74428;PMS5003;62860;52.134;23.714;2022-11-14T08:49:32;4.8;3.6;2.8
74428;PMS5003;62860;52.134;23.714;2022-11-14T08:54:32;12.6;12;11.6
74428;PMS5003;62860;52.134;23.714;2022-11-14T08:59:01;12.8;12.2;11.4
74428;PMS5003;62860;52.134;23.714;2022-11-14T09:04:32;7.6;7.2;6.4
74428;PMS5003;62860;52.134;23.714;2022-11-14T09:09:44;26.2;23.8;19.8
74428;PMS5003;62860;52.134;23.714;2022-11-14T09:14:48;29.2;28.2;23.8
74428;PMS5003;62860;52.134;23.714;2022-11-14T09:19:00;13.6;13;11.8
74428;PMS5003;62860;52.134;23.714;2022-11-14T09:24:10;8.8;8.2;7.4
74428;PMS5003;62860;52.134;23.714;2022-11-14T09:29:10;6.6;5.2;4.6
74428;PMS5003;62860;52.134;23.714;2022-11-14T09:34:44;8.6;7;6
74428;PMS5003;62860;52.134;23.714;2022-11-14T09:39:46;11.2;10.2;9.4
74428;PMS5003;62860;52.134;23.714;2022-11-14T09:44:48;12.4;12.4;11.4
74428;PMS5003;62860;52.134;23.714;2022-11-14T09:49:08;12.2;10.6;10.2
74428;PMS5003;62860;52.134;23.714;2022-11-14T09:54:12;11.6;10.6;10
74428;PMS5003;62860;52.134;23.714;2022-11-14T09:59:34;11.2;11.2;10.2
74428;PMS5003;62860;52.134;23.714;2022-11-14T10:04:39;12;11.6;10.4
74428;PMS5003;62860;52.134;23.714;2022-11-14T10:09:04;11;10.2;8.6
74428;PMS5003;62860;52.134;23.714;2022-11-14T10:14:05;6;5.2;5
74428;PMS5003;62860;52.134;23.714;2022-11-14T10:19:22;2.6;2.2;1.8
74428;PMS5003;62860;52.134;23.714;2022-11-14T10:24:40;2.6;2.4;1.6
74428;PMS5003;62860;52.134;23.714;2022-11-14T10:29:28;1.8;1.4;1
74428;PMS5003;62860;52.134;23.714;2022-11-14T10:34:49;4;2.4;2.2
74428;PMS5003;62860;52.134;23.714;2022-11-14T10:39:01;4.2;2.8;1.8
74428;PMS5003;62860;52.134;23.714;2022-11-14T10:44:10;2.4;1.6;1.6
74428;PMS5003;62860;52.134;23.714;2022-11-14T10:49:00;2;1.4;1.2
74428;PMS5003;62860;52.134;23.714;2022-11-14T10:54:49;1;1;1
74428;PMS5003;62860;52.134;23.714;2022-11-14T10:59:48;2.4;1.2;1
74428;PMS5003;62860;52.134;23.714;2022-11-14T11:04:11;1.4;1;1
74428;PMS5003;62860;52.134;23.714;2022-11-14T11:09:12;2;1;1
74428;PMS5003;62860;52.134;23.714;2022-11-14T11:14:34;2.4;2.4;2
74428;PMS5003;62860;52.134;23.714;2022-11-14T11:19:34;6.2;4.8;4.6
74428;PMS5003;62860;52.134;23.714;2022-11-14T11:24:00;6.2;5;4.8
74428;PMS5003;62860;52.134;23.714;2022-11-14T11:29:22;7.4;5.8;5.2
74428;PMS5003;62860;52.134;23.714;2022-11-14T11:34:01;7;6.6;5.8
74428;PMS5003;62860;52.134;23.714;2022-11-14T11:39:31;5;4.8;4.4
74428;PMS5003;62860;52.134;23.714;2022-11-14T11:44:01;12.6;11.8;11.6
74428;PMS5003;62860;52.134;23.714;2022-11-14T11:49:45;17.6;16.8;15.2
74428;PMS5003;62860;52.134;23.714;2022-11-14T11:54:27;3;1.8;1.6
74428;PMS5003;62860;52.134;23.714;2022-11-14T11:59:21;4;3;2.8
74428;PMS5003;62860;52.134;23.714;2022-11-14T12:04:30;6.4;5.8;5
74428;PMS5003;62860;52.134;23.714;2022-11-14T12:09:46;3;2.8;2.4
74428;PMS5003;62860;52.134;23.714;2022-11-14T12:14:50;2.6;2;2
74428;PMS5003;62860;52.134;23.714;2022-11-14T12:19:13;3.2;2.2;1.6
74428;PMS5003;62860;52.134;23.714;2022-11-14T12:24:22;3.3;1.3;1.3
74428;PMS5003;62860;52.134;23.714;2022-11-14T12:29:38;2;1.6;1.4
74428;PMS5003;62860;52.134;23.714;2022-11-14T12:34:31;8;6.4;6
74428;PMS5003;62860;52.134;23.714;2022-11-14T12:39:21;8.8;8.6;8.4
74428;PMS5003;62860;52.134;23.714;2022-11-14T12:44:30;6.6;5.2;4.6
74428;PMS5003;62860;52.134;23.714;2022-11-14T12:49:35;4.2;4;3.2
74428;PMS5003;62860;52.134;23.714;2022-11-14T12:54:42;4;3.2;2.8
74428;PMS5003;62860;52.134;23.714;2022-11-14T12:59:14;2.6;2.4;1.8
74428;PMS5003;62860;52.134;23.714;2022-11-14T13:04:51;1.2;0.8;0.6
74428;PMS5003;62860;52.134;23.714;2022-11-14T13:09:24;0.8;0.8;0.6
74428;PMS5003;62860;52.134;23.714;2022-11-14T13:14:00;2;1;0.8
74428;PMS5003;62860;52.134;23.714;2022-11-14T13:19:20;0.8;0.6;0.2
74428;PMS5003;62860;52.134;23.714;2022-11-14T13:26:09;0.2;0.2;0.2
74428;PMS5003;62860;52.134;23.714;2022-11-14T13:29:46;2.8;0.6;0.4
74428;PMS5003;62860;52.134;23.714;2022-11-14T13:35:14;2.2;1.2;1.2
74428;PMS5003;62860;52.134;23.714;2022-11-14T13:39:24;3.6;2.4;1.6
74428;PMS5003;62860;52.134;23.714;2022-11-14T13:44:39;6.6;5.4;5.2
74428;PMS5003;62860;52.134;23.714;2022-11-14T13:49:51;5;4.6;4
74428;PMS5003;62860;52.134;23.714;2022-11-14T13:54:30;3.6;2.4;2.4
74428;PMS5003;62860;52.134;23.714;2022-11-14T13:59:47;3.8;2.8;2.6
74428;PMS5003;62860;52.134;23.714;2022-11-14T14:04:39;6.8;6.2;5.2
74428;PMS5003;62860;52.134;23.714;2022-11-14T14:09:36;7.6;6.2;5.6
74428;PMS5003;62860;52.134;23.714;2022-11-14T14:14:41;2.2;1.8;1.8
74428;PMS5003;62860;52.134;23.714;2022-11-14T14:19:11;3;2.2;1.8
74428;PMS5003;62860;52.134;23.714;2022-11-14T14:24:50;3;1.8;1.4
74428;PMS5003;62860;52.134;23.714;2022-11-14T14:29:50;2.4;1.6;1.2
74428;PMS5003;62860;52.134;23.714;2022-11-14T14:34:48;2;1.4;1
74428;PMS5003;62860;52.134;23.714;2022-11-14T14:39:23;3.8;2.6;2.2
74428;PMS5003;62860;52.134;23.714;2022-11-14T14:44:00;3.4;3.2;2.4
74428;PMS5003;62860;52.134;23.714;2022-11-14T14:49:01;2.8;2.8;2.6
74428;PMS5003;62860;52.134;23.714;2022-11-14T14:54:52;4.4;2;1.2
74428;PMS5003;62860;52.134;23.714;2022-11-14T14:59:21;1.8;1.6;1.2
74428;PMS5003;62860;52.134;23.714;2022-11-14T15:04:32;4.6;3;2
74428;PMS5003;62860;52.134;23.714;2022-11-14T15:09:01;4;2.2;2.2
74428;PMS5003;62860;52.134;23.714;2022-11-14T15:14:48;3;2.2;1.8
74428;PMS5003;62860;52.134;23.714;2022-11-14T15:19:23;2.4;1.8;1.4
74428;PMS5003;62860;52.134;23.714;2022-11-14T15:24:35;2;1.2;1
74428;PMS5003;62860;52.134;23.714;2022-11-14T15:29:34;2;1.4;1.2
74428;PMS5003;62860;52.134;23.714;2022-11-14T15:34:36;1.8;1.8;1.4
74428;PMS5003;62860;52.134;23.714;2022-11-14T15:39:48;1;1;1
74428;PMS5003;62860;52.134;23.714;2022-11-14T15:44:49;2.6;1.4;1.4
74428;PMS5003;62860;52.134;23.714;2022-11-14T15:49:56;3.4;2.2;1.8
74428;PMS5003;62860;52.134;23.714;2022-11-14T15:54:21;3.6;2.2;2
74428;PMS5003;62860;52.134;23.714;2022-11-14T15:59:08;2.2;1.6;1.4
74428;PMS5003;62860;52.134;23.714;2022-11-14T16:04:24;2.2;2;1.8
74428;PMS5003;62860;52.134;23.714;2022-11-14T16:09:48;3.6;3;2.4
74428;PMS5003;62860;52.134;23.714;2022-11-14T16:14:20;3.2;2.2;2
74428;PMS5003;62860;52.134;23.714;2022-11-14T16:19:38;4.6;4;2.6
74428;PMS5003;62860;52.134;23.714;2022-11-14T16:24:12;4;2.4;1.4
74428;PMS5003;62860;52.134;23.714;2022-11-14T16:29:34;2.4;2.4;2.2
74428;PMS5003;62860;52.134;23.714;2022-11-14T16:34:00;2.4;2;1.8
74428;PMS5003;62860;52.134;23.714;2022-11-14T16:39:34;3.4;2.2;1.6
74428;PMS5003;62860;52.134;23.714;2022-11-14T16:44:36;2.8;2.6;2.4
74428;PMS5003;62860;52.134;23.714;2022-11-14T16:49:22;4.4;3;2.2
74428;PMS5003;62860;52.134;23.714;2022-11-14T16:54:48;3.6;2.2;1.6
74428;PMS5003;62860;52.134;23.714;2022-11-14T16:59:46;3.4;2.4;2
74428;PMS5003;62860;52.134;23.714;2022-11-14T17:04:46;2.4;1.6;1.4
74428;PMS5003;62860;52.134;23.714;2022-11-14T17:09:22;3.2;2.4;1.8
74428;PMS5003;62860;52.134;23.714;2022-11-14T17:14:10;3.4;2.4;2
74428;PMS5003;62860;52.134;23.714;2022-11-14T17:19:22;4.8;2.8;2.2
74428;PMS5003;62860;52.134;23.714;2022-11-14T17:24:48;4.4;3.2;2.2
74428;PMS5003;62860;52.134;23.714;2022-11-14T17:29:10;5.8;4.6;3.2
74428;PMS5003;62860;52.134;23.714;2022-11-14T17:34:34;8.8;5.8;4.3
74428;PMS5003;62860;52.134;23.714;2022-11-14T17:39:10;6.2;4.2;2.8
74428;PMS5003;62860;52.134;23.714;2022-11-14T17:44:46;7.6;4.6;3.6
74428;PMS5003;62860;52.134;23.714;2022-11-14T17:49:00;4.6;2.6;2.4
74428;PMS5003;62860;52.134;23.714;2022-11-14T17:54:32;3.2;2.8;2
74428;PMS5003;62860;52.134;23.714;2022-11-14T17:59:36;4.8;3;2.4
74428;PMS5003;62860;52.134;23.714;2022-11-14T18:04:10;4.6;4;3
74428;PMS5003;62860;52.134;23.714;2022-11-14T18:09:48;4.2;3.6;2.2
74428;PMS5003;62860;52.134;23.714;2022-11-14T18:14:46;4;3;2.2
74428;PMS5003;62860;52.134;23.714;2022-11-14T18:19:46;5.4;3.4;3
74428;PMS5003;62860;52.134;23.714;2022-11-14T18:24:20;4.8;4.4;3.6
74428;PMS5003;62860;52.134;23.714;2022-11-14T18:29:00;4;4;3.6
74428;PMS5003;62860;52.134;23.714;2022-11-14T18:34:10;5.2;3.4;2.8
74428;PMS5003;62860;52.134;23.714;2022-11-14T18:39:22;5.8;4.4;3
74428;PMS5003;62860;52.134;23.714;2022-11-14T18:44:48;4;3;2.6
74428;PMS5003;62860;52.134;23.714;2022-11-14T18:49:46;5.2;5;3.2
74428;PMS5003;62860;52.134;23.714;2022-11-14T18:54:00;3.4;3.2;2.4
74428;PMS5003;62860;52.134;23.714;2022-11-14T18:59:20;5.4;3.8;2.8
74428;PMS5003;62860;52.134;23.714;2022-11-14T19:04:36;5;4.4;3.2
74428;PMS5003;62860;52.134;23.714;2022-11-14T19:09:03;5.2;3.6;2.6
74428;PMS5003;62860;52.134;23.714;2022-11-14T19:14:22;5.2;3.6;2.6
74428;PMS5003;62860;52.134;23.714;2022-11-14T19:19:01;5.2;4.2;2.8
74428;PMS5003;62860;52.134;23.714;2022-11-14T19:24:00;5.4;3.8;2.8
74428;PMS5003;62860;52.134;23.714;2022-11-14T19:29:35;5;3.6;2.8
74428;PMS5003;62860;52.134;23.714;2022-11-14T19:34:20;5.8;4.2;3
74428;PMS5003;62860;52.134;23.714;2022-11-14T19:39:46;5;4;3.3
74428;PMS5003;62860;52.134;23.714;2022-11-14T19:44:01;6;3.2;3
74428;PMS5003;62860;52.134;23.714;2022-11-14T19:49:32;3.6;2.8;2.2
74428;PMS5003;62860;52.134;23.714;2022-11-14T19:54:22;3.6;2.2;1.6
74428;PMS5003;62860;52.134;23.714;2022-11-14T19:59:46;3.6;2.6;2
74428;PMS5003;62860;52.134;23.714;2022-11-14T20:04:48;3.8;2.6;2
74428;PMS5003;62860;52.134;23.714;2022-11-14T20:09:01;4;2.8;1.8
74428;PMS5003;62860;52.134;23.714;2022-11-14T20:14:11;4.2;3;2.2
74428;PMS5003;62860;52.134;23.714;2022-11-14T20:19:20;4.6;3.4;2.6
74428;PMS5003;62860;52.134;23.714;2022-11-14T20:24:20;2.4;2.2;1.6
74428;PMS5003;62860;52.134;23.714;2022-11-14T20:29:22;2.4;1.8;1.6
74428;PMS5003;62860;52.134;23.714;2022-11-14T20:34:10;3.2;2.6;2
74428;PMS5003;62860;52.134;23.714;2022-11-14T20:39:10;3.8;2.8;2.2
74428;PMS5003;62860;52.134;23.714;2022-11-14T20:44:34;3.8;3;2
74428;PMS5003;62860;52.134;23.714;2022-11-14T20:49:20;3.8;3;2
74428;PMS5003;62860;52.134;23.714;2022-11-14T20:54:48;3.6;2.8;2.6
74428;PMS5003;62860;52.134;23.714;2022-11-14T20:59:00;2.8;2.4;2
74428;PMS5003;62860;52.134;23.714;2022-11-14T21:04:00;5.4;3.8;2.4
74428;PMS5003;62860;52.134;23.714;2022-11-14T21:09:22;4.4;3.2;2.4
74428;PMS5003;62860;52.134;23.714;2022-11-14T21:14:48;3.6;3.6;2.6
74428;PMS5003;62860;52.134;23.714;2022-11-14T21:19:46;3.2;2.4;1.6
74428;PMS5003;62860;52.134;23.714;2022-11-14T21:24:10;4.4;2.8;2.6
74428;PMS5003;62860;52.134;23.714;2022-11-14T21:29:11;5.4;3.6;2.8
74428;PMS5003;62860;52.134;23.714;2022-11-14T21:34:13;3.6;3;2.4
74428;PMS5003;62860;52.134;23.714;2022-11-14T21:39:32;3.6;3.2;2.6
74428;PMS5003;62860;52.134;23.714;2022-11-14T21:44:49;4.6;3;2.4
74428;PMS5003;62860;52.134;23.714;2022-11-14T21:49:10;4.4;3;2.2
74428;PMS5003;62860;52.134;23.714;2022-11-14T21:54:22;5;3.4;3
74428;PMS5003;62860;52.134;23.714;2022-11-14T21:59:28;5.2;4;3
74428;PMS5003;62860;52.134;23.714;2022-11-14T22:04:17;4.4;4.2;3.2
74428;PMS5003;62860;52.134;23.714;2022-11-14T22:09:43;4.8;3.8;2.8
74428;PMS5003;62860;52.134;23.714;2022-11-14T22:14:07;6.2;4.4;3
74428;PMS5003;62860;52.134;23.714;2022-11-14T22:19:07;7;5.4;3.4
74428;PMS5003;62860;52.134;23.714;2022-11-14T22:24:13;7;5.8;4.6
74428;PMS5003;62860;52.134;23.714;2022-11-14T22:29:45;6.2;5;4.2
74428;PMS5003;62860;52.134;23.714;2022-11-14T22:34:43;6.4;4;3.4
74428;PMS5003;62860;52.134;23.714;2022-11-14T22:39:07;6.8;5.4;3.2
74428;PMS5003;62860;52.134;23.714;2022-11-14T22:44:07;5.6;4.6;3.2
74428;PMS5003;62860;52.134;23.714;2022-11-14T22:49:33;6.6;6;4.2
74428;PMS5003;62860;52.134;23.714;2022-11-14T22:54:29;6;4.8;3.4
74428;PMS5003;62860;52.134;23.714;2022-11-14T22:59:19;8.6;6.4;4
74428;PMS5003;62860;52.134;23.714;2022-11-14T23:04:45;7.8;5;3.8
74428;PMS5003;62860;52.134;23.714;2022-11-14T23:09:01;7.8;6.6;4.2
74428;PMS5003;62860;52.134;23.714;2022-11-14T23:14:43;7.2;5.2;3.6
74428;PMS5003;62860;52.134;23.714;2022-11-14T23:19:15;9.6;6.6;4.2
74428;PMS5003;62860;52.134;23.714;2022-11-14T23:24:41;6.8;5.2;4.4
74428;PMS5003;62860;52.134;23.714;2022-11-14T23:29:17;7.8;5.8;4.4
74428;PMS5003;62860;52.134;23.714;2022-11-14T23:34:01;6.6;5.8;5
74428;PMS5003;62860;52.134;23.714;2022-11-14T23:39:17;7;5.8;3.8
74428;PMS5003;62860;52.134;23.714;2022-11-14T23:44:41;8.6;7;5
74428;PMS5003;62860;52.134;23.714;2022-11-14T23:49:43;8.4;7;4.6
74428;PMS5003;62860;52.134;23.714;2022-11-14T23:54:43;10.2;6.4;5.4
74428;PMS5003;62860;52.134;23.714;2022-11-14T23:59:01;8.4;7;4.8
